Time;durP1;ratioP1;P1;durP2;ratioP2;P2;SDS_P1;SDS_P2;PMS_P1;PMS_P2;Temp;Humidity;BMP_temperature;BMP_pressure;BME280_temperature;BME280_humidity;BME280_pressure;Samples;Min_cycle;Max_cycle;Signal;HPM_P1;HPM_P2
2024/03/03 00:01:39;;;;;;;;;;;;;;;16.17;51.33;100638.47;5036093;28;1508;-55
2024/03/03 00:04:05;;;;;;;;;;;;;;;15.92;52.00;100640.06;5036619;28;1099;-56
2024/03/03 00:06:31;;;;;;;;;;;;;;;15.81;52.42;100638.41;5036604;28;1016;-56
2024/03/03 00:08:57;;;;;;;;;;;;;;;17.35;48.44;100632.75;5036255;28;1155;-55
2024/03/03 00:11:23;;;;;;;;;;;;;;;17.15;48.75;100639.13;5036313;28;1152;-53
2024/03/03 00:13:48;;;;;;;;;;;;;;;16.41;50.84;100636.81;5035978;28;953;-55
2024/03/03 00:16:14;;;;;;;;;;;;;;;16.09;51.19;100645.34;5023815;28;1154;-55
2024/03/03 00:18:39;;;;;;;;;;;;;;;15.77;52.02;100638.13;5035983;28;1980;-53
2024/03/03 00:21:05;;;;;;;;;;;;;;;15.60;52.56;100632.88;5036505;28;1039;-55
2024/03/03 00:23:31;;;;;;;;;;;;;;;16.90;49.85;100626.31;5036316;28;1207;-52
2024/03/03 00:25:56;;;;;;;;;;;;;;;17.71;47.32;100624.31;5035646;28;1087;-53
2024/03/03 00:28:22;;;;;;;;;;;;;;;16.65;50.30;100625.25;5036148;28;1102;-54
2024/03/03 00:30:48;;;;;;;;;;;;;;;16.24;51.21;100619.81;5034780;28;1629;-55
2024/03/03 00:33:14;;;;;;;;;;;;;;;15.97;51.67;100620.91;5035956;28;1079;-55
2024/03/03 00:35:40;;;;;;;;;;;;;;;15.68;52.30;100618.66;5036376;28;1027;-56
2024/03/03 00:38:05;;;;;;;;;;;;;;;15.82;52.22;100629.09;5035739;28;1055;-54
2024/03/03 00:40:32;;;;;;;;;;;;;;;17.33;48.56;100632.19;5035646;28;1910;-54
2024/03/03 00:42:58;;;;;;;;;;;;;;;17.17;48.55;100641.63;5036250;28;1159;-54
2024/03/03 00:45:24;;;;;;;;;;;;;;;16.36;50.86;100636.00;5036124;28;1083;-52
2024/03/03 00:47:49;;;;;;;;;;;;;;;16.10;51.38;100629.69;5036167;28;1063;-53
2024/03/03 00:50:15;;;;;;;;;;;;;;;15.86;51.85;100630.22;5035836;28;1004;-55
2024/03/03 00:52:40;;;;;;;;;;;;;;;15.86;52.09;100625.53;5035760;28;1067;-55
2024/03/03 00:55:07;;;;;;;;;;;;;;;17.35;48.48;100626.41;5036071;28;1261;-55
2024/03/03 00:57:32;;;;;;;;;;;;;;;17.13;48.92;100629.53;5036152;28;1124;-51
2024/03/03 00:59:58;;;;;;;;;;;;;;;16.32;50.82;100629.41;5023720;28;1985;-51
2024/03/03 01:02:24;;;;;;;;;;;;;;;15.99;51.49;100634.34;5034951;28;1147;-53
2024/03/03 01:04:50;;;;;;;;;;;;;;;15.71;52.37;100629.06;5036103;28;850;-53
2024/03/03 01:07:16;;;;;;;;;;;;;;;15.62;52.27;100636.16;5035974;28;1278;-54
2024/03/03 01:09:41;;;;;;;;;;;;;;;16.81;50.07;100633.47;5035682;28;1024;-55
2024/03/03 01:12:07;;;;;;;;;;;;;;;17.48;48.08;100628.53;5035639;28;1130;-56
2024/03/03 01:14:32;;;;;;;;;;;;;;;16.46;50.45;100632.41;5035705;28;1130;-55
2024/03/03 01:16:58;;;;;;;;;;;;;;;16.03;51.43;100630.78;5036160;28;1158;-53
2024/03/03 01:19:24;;;;;;;;;;;;;;;15.72;51.96;100625.25;5035842;28;1981;-53
2024/03/03 01:21:49;;;;;;;;;;;;;;;15.89;51.95;100629.66;5031680;28;1142;-53
2024/03/03 01:24:15;;;;;;;;;;;;;;;17.39;48.38;100622.81;5031204;28;1162;-54
2024/03/03 01:26:40;;;;;;;;;;;;;;;16.95;49.19;100620.81;5039114;28;1183;-53
2024/03/03 01:29:06;;;;;;;;;;;;;;;16.35;50.70;100626.94;5039461;28;1238;-52
2024/03/03 01:31:32;;;;;;;;;;;;;;;15.95;51.49;100630.50;5039120;28;1075;-54
2024/03/03 01:33:57;;;;;;;;;;;;;;;15.69;52.12;100617.53;5039452;28;1199;-52
2024/03/03 01:36:23;;;;;;;;;;;;;;;15.54;52.58;100622.97;5025964;28;1214;-52
2024/03/03 01:38:48;;;;;;;;;;;;;;;16.71;50.08;100620.56;5038990;28;1971;-54
2024/03/03 01:41:14;;;;;;;;;;;;;;;17.66;47.43;100618.81;5039021;28;1063;-51
2024/03/03 01:43:41;;;;;;;;;;;;;;;16.60;50.06;100619.75;5038796;28;1122;-54
2024/03/03 01:46:08;;;;;;;;;;;;;;;16.06;51.47;100622.00;5033972;28;1031;-53
2024/03/03 01:48:36;;;;;;;;;;;;;;;15.74;52.16;100616.75;5013345;28;1141;-53
2024/03/03 01:51:03;;;;;;;;;;;;;;;15.60;52.46;100624.66;5038536;28;1166;-54
2024/03/03 01:53:28;;;;;;;;;;;;;;;15.90;51.86;100620.34;5038374;28;1036;-50
2024/03/03 01:55:54;;;;;;;;;;;;;;;17.37;48.29;100618.72;5064750;28;1441;-53
2024/03/03 01:58:19;;;;;;;;;;;;;;;17.20;48.35;100619.06;5029971;28;1166;-51
2024/03/03 02:00:46;;;;;;;;;;;;;;;16.43;50.58;100620.06;5037424;28;1922;-53
2024/03/03 02:03:11;;;;;;;;;;;;;;;16.05;51.48;100616.81;5037002;28;829;-51
2024/03/03 02:05:37;;;;;;;;;;;;;;;15.73;51.95;100621.38;5037129;28;1102;-51
2024/03/03 02:08:06;;;;;;;;;;;;;;;15.61;52.20;100623.53;5037240;28;1214;-53
2024/03/03 02:10:32;;;;;;;;;;;;;;;17.16;48.86;100626.22;5033071;28;1131;-49
2024/03/03 02:12:58;;;;;;;;;;;;;;;17.33;47.99;100632.19;5063107;28;1300;-49
2024/03/03 02:15:24;;;;;;;;;;;;;;;16.42;50.47;100638.47;5032877;28;1107;-54
2024/03/03 02:17:49;;;;;;;;;;;;;;;16.05;51.48;100638.75;5041254;28;1079;-50
2024/03/03 02:20:15;;;;;;;;;;;;;;;15.82;51.74;100642.81;5024367;28;1902;-53
2024/03/03 02:22:40;;;;;;;;;;;;;;;15.59;52.28;100638.63;5038451;28;1155;-49
2024/03/03 02:25:06;;;;;;;;;;;;;;;16.23;51.18;100640.13;5024514;28;1182;-49
2024/03/03 02:27:33;;;;;;;;;;;;;;;17.54;47.79;100643.09;5036525;28;937;-54
2024/03/03 02:29:58;;;;;;;;;;;;;;;16.72;49.83;100634.03;5037100;28;1163;-54
2024/03/03 02:32:24;;;;;;;;;;;;;;;16.15;51.08;100641.47;5038224;28;1163;-56
2024/03/03 02:34:49;;;;;;;;;;;;;;;15.79;51.85;100646.06;5031988;28;1155;-55
2024/03/03 02:37:15;;;;;;;;;;;;;;;15.60;52.16;100643.84;5050645;28;1115;-55
2024/03/03 02:39:40;;;;;;;;;;;;;;;16.03;51.72;100641.75;5036944;28;1901;-51
2024/03/03 02:42:06;;;;;;;;;;;;;;;17.40;48.01;100646.47;5038071;28;1047;-51
2024/03/03 02:44:31;;;;;;;;;;;;;;;17.16;48.38;100650.97;5037553;28;1071;-50
2024/03/03 02:46:57;;;;;;;;;;;;;;;16.32;50.79;100654.91;5025497;28;1011;-53
2024/03/03 02:49:22;;;;;;;;;;;;;;;15.94;51.40;100659.03;5037193;28;1123;-53
2024/03/03 02:51:48;;;;;;;;;;;;;;;15.68;52.18;100661.66;5037505;28;884;-52
2024/03/03 02:54:14;;;;;;;;;;;;;;;15.54;52.50;100664.09;5037487;28;1135;-54
2024/03/03 02:56:39;;;;;;;;;;;;;;;16.70;50.03;100666.41;5037705;28;1263;-54
2024/03/03 02:59:05;;;;;;;;;;;;;;;17.76;47.39;100671.00;5037934;28;1909;-48
2024/03/03 03:01:30;;;;;;;;;;;;;;;16.79;49.50;100665.84;5037698;28;1072;-48
2024/03/03 03:03:56;;;;;;;;;;;;;;;16.15;51.07;100665.34;5029910;28;1551;-54
2024/03/03 03:06:22;;;;;;;;;;;;;;;15.89;51.68;100668.06;5062041;28;1274;-50
2024/03/03 03:08:47;;;;;;;;;;;;;;;15.67;51.97;100671.81;5036028;28;1573;-52
2024/03/03 03:11:13;;;;;;;;;;;;;;;15.48;52.56;100671.47;5037200;28;1067;-53
2024/03/03 03:13:38;;;;;;;;;;;;;;;16.62;50.21;100675.22;5030432;28;1185;-54
2024/03/03 03:16:05;;;;;;;;;;;;;;;17.70;47.28;100677.66;5065760;28;1441;-55
2024/03/03 03:18:30;;;;;;;;;;;;;;;16.83;49.36;100677.91;5032284;28;1175;-54
2024/03/03 03:20:56;;;;;;;;;;;;;;;16.24;50.67;100678.25;5049321;28;1913;-54
2024/03/03 03:23:23;;;;;;;;;;;;;;;15.92;51.45;100678.47;5035220;28;1072;-54
2024/03/03 03:25:49;;;;;;;;;;;;;;;15.69;52.04;100686.06;5037225;28;1271;-53
2024/03/03 03:28:15;;;;;;;;;;;;;;;16.00;51.77;100683.41;5036569;28;1135;-51
2024/03/03 03:30:40;;;;;;;;;;;;;;;17.44;48.14;100683.25;5036889;28;1040;-54
2024/03/03 03:33:06;;;;;;;;;;;;;;;16.93;48.97;100684.25;5036898;28;1055;-53
2024/03/03 03:35:32;;;;;;;;;;;;;;;16.29;50.59;100687.59;5036696;28;1110;-54
2024/03/03 03:37:58;;;;;;;;;;;;;;;15.90;51.39;100689.72;5036936;28;1075;-53
2024/03/03 03:40:24;;;;;;;;;;;;;;;15.71;51.80;100688.53;5036641;28;1981;-54
2024/03/03 03:42:50;;;;;;;;;;;;;;;15.73;52.16;100695.41;5023716;28;1162;-54
2024/03/03 03:45:15;;;;;;;;;;;;;;;17.28;48.58;100692.69;5036270;28;1194;-51
2024/03/03 03:47:41;;;;;;;;;;;;;;;16.90;49.04;100694.97;5036467;28;1055;-52
2024/03/03 03:50:07;;;;;;;;;;;;;;;16.19;50.91;100688.41;5036511;28;1106;-54
2024/03/03 03:52:32;;;;;;;;;;;;;;;15.89;51.74;100695.47;5036336;28;961;-53
2024/03/03 03:54:58;;;;;;;;;;;;;;;15.57;52.29;100701.91;5025627;28;1233;-51
2024/03/03 03:57:23;;;;;;;;;;;;;;;15.98;51.91;100699.34;5016885;28;1119;-52
2024/03/03 03:59:49;;;;;;;;;;;;;;;17.43;47.98;100698.13;5028059;28;1973;-50
2024/03/03 04:02:14;;;;;;;;;;;;;;;17.05;48.66;100694.94;5036535;28;1071;-51
2024/03/03 04:04:40;;;;;;;;;;;;;;;16.27;50.66;100689.78;5036202;28;973;-51
2024/03/03 04:07:06;;;;;;;;;;;;;;;15.92;51.58;100700.41;5036214;28;1155;-53
2024/03/03 04:09:32;;;;;;;;;;;;;;;15.68;51.78;100695.41;5036596;28;1031;-50
2024/03/03 04:11:58;;;;;;;;;;;;;;;15.94;51.75;100692.75;5036596;28;1190;-53
2024/03/03 04:14:23;;;;;;;;;;;;;;;17.39;47.91;100683.28;5036632;28;1020;-49
2024/03/03 04:16:49;;;;;;;;;;;;;;;17.24;48.14;100686.09;5035839;28;954;-57
2024/03/03 04:19:14;;;;;;;;;;;;;;;16.40;50.28;100684.56;5036902;28;2048;-59
2024/03/03 04:21:41;;;;;;;;;;;;;;;15.97;51.38;100683.97;5032054;28;1075;-57
2024/03/03 04:24:07;;;;;;;;;;;;;;;15.76;51.81;100696.78;5030842;28;1083;-58
2024/03/03 04:26:32;;;;;;;;;;;;;;;15.61;52.20;100689.31;5036214;28;1008;-58
2024/03/03 04:28:58;;;;;;;;;;;;;;;16.14;51.39;100691.13;5022613;28;961;-60
2024/03/03 04:31:23;;;;;;;;;;;;;;;17.44;48.01;100694.25;5036581;28;1087;-59
2024/03/03 04:33:49;;;;;;;;;;;;;;;17.10;48.24;100692.19;5036805;28;1151;-58
2024/03/03 04:36:14;;;;;;;;;;;;;;;16.29;50.53;100693.06;5036274;28;1516;-59
2024/03/03 04:38:40;;;;;;;;;;;;;;;15.91;51.40;100699.59;5035107;28;1120;-58
2024/03/03 04:41:32;;;;;;;;;;;;;;;15.72;51.72;100699.25;5035952;28;1927;-58
2024/03/03 04:43:57;;;;;;;;;;;;;;;15.86;51.72;100701.50;5035140;28;1554;-60
2024/03/03 04:46:23;;;;;;;;;;;;;;;17.36;47.95;100697.59;5035713;28;1075;-62
2024/03/03 04:48:48;;;;;;;;;;;;;;;17.10;48.51;100702.34;5029452;28;1101;-60
2024/03/03 04:51:14;;;;;;;;;;;;;;;16.31;50.54;100699.91;5035638;28;1059;-59
2024/03/03 04:53:40;;;;;;;;;;;;;;;15.91;51.37;100709.75;5025366;28;1027;-59
2024/03/03 04:56:06;;;;;;;;;;;;;;;15.67;52.09;100701.97;5035151;28;1171;-62
2024/03/03 04:58:31;;;;;;;;;;;;;;;15.84;51.69;100711.94;5039607;28;1054;-60
2024/03/03 05:00:57;;;;;;;;;;;;;;;17.28;48.34;100715.47;5035464;28;1906;-61
2024/03/03 05:03:23;;;;;;;;;;;;;;;17.15;48.37;100713.31;5030999;28;1055;-62
2024/03/03 05:05:49;;;;;;;;;;;;;;;16.28;50.33;100716.94;5035416;28;1119;-63
2024/03/03 05:08:14;;;;;;;;;;;;;;;15.90;51.31;100713.56;5020201;28;1114;-60
2024/03/03 05:10:40;;;;;;;;;;;;;;;15.73;51.82;100720.06;5033526;28;1147;-60
2024/03/03 05:13:05;;;;;;;;;;;;;;;16.71;49.89;100706.50;5030788;28;1067;-59
2024/03/03 05:15:32;;;;;;;;;;;;;;;17.75;46.92;100707.88;5037307;28;1094;-62
2024/03/03 05:17:58;;;;;;;;;;;;;;;16.22;50.13;100712.53;5039199;28;1090;-58
2024/03/03 05:20:24;;;;;;;;;;;;;;;15.78;50.00;100716.53;5032350;28;1902;-61
2024/03/03 05:22:49;;;;;;;;;;;;;;;17.41;48.38;100711.31;5033061;28;1084;-59
2024/03/03 05:25:15;;;;;;;;;;;;;;;16.77;49.52;100716.41;5039397;28;1032;-61
2024/03/03 05:27:40;;;;;;;;;;;;;;;16.02;50.20;100719.66;5039228;28;1183;-57
2024/03/03 05:30:06;;;;;;;;;;;;;;;15.86;49.23;100729.75;5038598;28;1147;-59
2024/03/03 05:32:31;;;;;;;;;;;;;;;17.45;48.42;100720.63;5032745;28;1116;-58
2024/03/03 05:34:57;;;;;;;;;;;;;;;16.82;49.38;100720.25;5032899;28;1320;-59
2024/03/03 05:37:23;;;;;;;;;;;;;;;16.18;49.61;100730.66;5038510;28;1481;-58
2024/03/03 05:39:49;;;;;;;;;;;;;;;15.96;49.03;100734.44;5025450;28;1971;-59
2024/03/03 05:42:14;;;;;;;;;;;;;;;17.52;48.38;100725.84;5038355;28;2850;-58
2024/03/03 05:44:40;;;;;;;;;;;;;;;16.74;49.81;100727.09;5038399;28;2105;-58
2024/03/03 05:47:05;;;;;;;;;;;;;;;16.19;49.63;100738.59;5038356;28;1992;-59
2024/03/03 05:49:31;;;;;;;;;;;;;;;17.55;48.54;100735.47;5035402;28;2055;-59
2024/03/03 05:51:56;;;;;;;;;;;;;;;16.69;49.87;100730.69;5035041;28;1969;-58
2024/03/03 05:54:22;;;;;;;;;;;;;;;16.19;49.50;100737.78;5038233;28;2166;-59
2024/03/03 05:56:47;;;;;;;;;;;;;;;17.48;48.77;100729.44;5038250;28;1099;-58
2024/03/03 05:59:14;;;;;;;;;;;;;;;16.97;49.47;100731.22;5037886;28;1974;-59
2024/03/03 06:01:48;;;;;;;;;;;;;;;16.40;49.59;100728.47;5018854;28;1151;-58
2024/03/03 06:04:14;;;;;;;;;;;;;;;16.18;48.55;100733.38;5034220;28;1012;-58
2024/03/03 06:06:40;;;;;;;;;;;;;;;15.96;48.14;100741.84;5038249;28;1115;-58
2024/03/03 06:09:08;;;;;;;;;;;;;;;17.31;49.01;100733.34;5025204;28;1111;-58
2024/03/03 06:11:34;;;;;;;;;;;;;;;17.08;49.22;100740.25;5038015;28;1023;-59
2024/03/03 06:13:59;;;;;;;;;;;;;;;16.36;49.47;100738.34;5038450;28;1055;-59
2024/03/03 06:16:25;;;;;;;;;;;;;;;16.13;48.75;100744.34;5037741;28;1171;-60
2024/03/03 06:18:51;;;;;;;;;;;;;;;15.98;48.31;100753.38;5038697;28;1193;-60
2024/03/03 06:21:16;;;;;;;;;;;;;;;16.37;49.01;100756.47;5028651;28;1317;-59
2024/03/03 06:23:42;;;;;;;;;;;;;;;17.78;48.49;100750.47;5038307;28;2604;-59
2024/03/03 06:26:07;;;;;;;;;;;;;;;16.63;49.89;100747.41;5038026;28;1078;-60
2024/03/03 06:28:33;;;;;;;;;;;;;;;16.21;49.29;100752.03;5037796;28;1182;-53
2024/03/03 06:30:59;;;;;;;;;;;;;;;17.69;48.58;100747.50;5032994;28;1000;-60
2024/03/03 06:33:26;;;;;;;;;;;;;;;17.36;48.85;100757.22;5030567;28;1036;-60
2024/03/03 06:35:51;;;;;;;;;;;;;;;16.68;49.84;100767.47;5037694;28;1055;-60
2024/03/03 06:38:17;;;;;;;;;;;;;;;18.35;46.95;100758.44;5038205;28;1016;-59
2024/03/03 06:40:44;;;;;;;;;;;;;;;17.04;48.99;100761.97;5037449;28;1914;-59
2024/03/03 06:43:09;;;;;;;;;;;;;;;16.62;48.91;100763.09;5037840;28;991;-58
2024/03/03 06:45:35;;;;;;;;;;;;;;;16.33;48.50;100766.34;5024040;28;1074;-57
2024/03/03 06:48:00;;;;;;;;;;;;;;;16.33;48.60;100769.09;5037583;28;1179;-57
2024/03/03 06:50:26;;;;;;;;;;;;;;;17.72;48.21;100768.91;5037940;28;1039;-58
2024/03/03 06:52:51;;;;;;;;;;;;;;;16.65;49.42;100770.75;5036991;28;1016;-58
2024/03/03 06:55:17;;;;;;;;;;;;;;;17.50;48.97;100765.72;5029041;28;2517;-58
2024/03/03 06:57:42;;;;;;;;;;;;;;;17.44;48.65;100773.97;5037754;28;1179;-60
2024/03/03 07:00:09;;;;;;;;;;;;;;;16.63;49.18;100775.69;5037103;28;1910;-59
2024/03/03 07:05:20;;;;;;;;;;;;;;;16.22;47.84;100775.66;5012992;28;1065;-57
2024/03/03 07:07:45;;;;;;;;;;;;;;;16.07;47.64;100777.28;5026027;28;1320;-58
2024/03/03 07:10:11;;;;;;;;;;;;;;;16.17;47.51;100778.38;5030648;28;1180;-58
2024/03/03 07:12:36;;;;;;;;;;;;;;;17.56;48.72;100770.91;5030157;28;1305;-50
2024/03/03 07:15:02;;;;;;;;;;;;;;;16.87;49.76;100775.97;5031278;28;1538;-55
2024/03/03 07:17:28;;;;;;;;;;;;;;;16.40;49.54;100782.53;5036961;28;860;-54
2024/03/03 07:19:53;;;;;;;;;;;;;;;16.18;48.60;100780.03;5035993;28;1980;-55
2024/03/03 07:22:19;;;;;;;;;;;;;;;15.99;48.12;100777.78;5036904;28;1138;-56
2024/03/03 07:24:44;;;;;;;;;;;;;;;16.45;48.85;100778.97;5028762;28;2547;-54
2024/03/03 07:27:10;;;;;;;;;;;;;;;17.78;48.64;100777.97;5036945;28;1120;-54
2024/03/03 07:29:35;;;;;;;;;;;;;;;16.58;49.88;100783.94;5035878;28;1265;-57
2024/03/03 07:32:02;;;;;;;;;;;;;;;16.27;49.09;100781.16;5036427;28;989;-57
2024/03/03 07:34:28;;;;;;;;;;;;;;;16.43;49.56;100787.47;5036964;28;987;-57
2024/03/03 07:36:53;;;;;;;;;;;;;;;17.14;49.29;100779.53;5036453;28;1088;-56
2024/03/03 07:39:20;;;;;;;;;;;;;;;16.47;49.40;100787.78;5031821;28;1913;-55
2024/03/03 07:41:45;;;;;;;;;;;;;;;16.93;49.83;100779.59;5036189;28;1063;-54
2024/03/03 07:44:11;;;;;;;;;;;;;;;16.99;49.41;100778.47;5036656;28;1035;-52
2024/03/03 07:46:37;;;;;;;;;;;;;;;16.38;49.45;100782.81;5036572;28;1012;-55
2024/03/03 07:49:03;;;;;;;;;;;;;;;16.20;48.80;100777.81;5036293;28;1154;-55
2024/03/03 07:51:28;;;;;;;;;;;;;;;16.05;47.86;100771.22;5036384;28;1105;-53
2024/03/03 07:53:54;;;;;;;;;;;;;;;17.00;49.08;100782.03;5028413;28;2431;-55
2024/03/03 07:56:20;;;;;;;;;;;;;;;16.87;49.61;100777.88;5029655;28;1056;-55
2024/03/03 07:58:46;;;;;;;;;;;;;;;16.30;49.38;100777.03;5036529;28;1118;-55
2024/03/03 08:01:11;;;;;;;;;;;;;;;17.00;49.60;100769.13;5023134;28;1889;-58
2024/03/03 08:03:37;;;;;;;;;;;;;;;17.02;49.37;100772.41;5035719;28;1103;-54
2024/03/03 08:06:02;;;;;;;;;;;;;;;16.45;49.08;100778.97;5035486;28;1285;-57
2024/03/03 08:08:28;;;;;;;;;;;;;;;16.17;48.52;100778.38;5035970;28;1439;-56
2024/03/03 08:10:53;;;;;;;;;;;;;;;16.06;47.83;100767.38;5036135;28;1083;-55
2024/03/03 08:13:19;;;;;;;;;;;;;;;16.79;49.00;100775.69;5036135;28;1099;-56
2024/03/03 08:15:44;;;;;;;;;;;;;;;18.11;47.54;100764.66;5036248;28;999;-55
2024/03/03 08:18:10;;;;;;;;;;;;;;;16.87;49.67;100765.00;5034072;28;1007;-55
2024/03/03 08:20:35;;;;;;;;;;;;;;;16.42;49.12;100786.66;5034275;28;1902;-56
2024/03/03 08:23:01;;;;;;;;;;;;;;;17.48;49.23;100767.94;5024936;28;1074;-56
2024/03/03 08:25:27;;;;;;;;;;;;;;;17.52;48.93;100769.03;5024216;28;2443;-57
2024/03/03 08:27:56;;;;;;;;;;;;;;;16.76;49.38;100774.34;5035859;28;1139;-53
2024/03/03 08:30:22;;;;;;;;;;;;;;;16.45;49.01;100778.97;5036196;28;845;-51
2024/03/03 08:32:47;;;;;;;;;;;;;;;16.63;49.07;100770.19;5040747;28;1063;-52
2024/03/03 08:35:13;;;;;;;;;;;;;;;18.00;48.03;100769.38;5039670;28;1102;-54
2024/03/03 08:37:38;;;;;;;;;;;;;;;16.80;49.46;100774.59;5039937;28;1110;-55
2024/03/03 08:40:04;;;;;;;;;;;;;;;16.42;48.98;100778.44;5040131;28;1902;-51
2024/03/03 08:42:30;;;;;;;;;;;;;;;17.66;48.90;100764.56;5034849;28;1066;-57
2024/03/03 08:44:56;;;;;;;;;;;;;;;17.55;48.73;100768.47;5032127;28;1028;-56
2024/03/03 08:47:21;;;;;;;;;;;;;;;16.76;49.35;100768.84;5036426;28;1016;-58
2024/03/03 08:49:47;;;;;;;;;;;;;;;16.47;49.01;100774.06;5039919;28;1430;-55
2024/03/03 08:52:12;;;;;;;;;;;;;;;16.34;48.18;100769.91;5040188;28;965;-56
2024/03/03 08:54:38;;;;;;;;;;;;;;;17.44;49.16;100765.72;5039429;28;1986;-57
2024/03/03 08:57:03;;;;;;;;;;;;;;;17.77;48.22;100766.16;5033455;28;1028;-56
2024/03/03 08:59:29;;;;;;;;;;;;;;;16.76;49.72;100766.91;5032928;28;1894;-56
2024/03/03 09:01:55;;;;;;;;;;;;;;;16.50;48.78;100766.06;5051824;28;1097;-55
2024/03/03 09:04:20;;;;;;;;;;;;;;;16.33;48.21;100765.53;5033296;28;1167;-55
2024/03/03 09:06:46;;;;;;;;;;;;;;;16.46;48.52;100770.47;5038534;28;887;-54
2024/03/03 09:09:11;;;;;;;;;;;;;;;17.83;48.12;100760.66;5039916;28;1153;-55
2024/03/03 09:11:37;;;;;;;;;;;;;;;16.70;49.76;100770.75;5039205;28;1148;-58
2024/03/03 09:14:02;;;;;;;;;;;;;;;16.45;48.97;100762.50;5039745;28;1012;-56
2024/03/03 09:16:28;;;;;;;;;;;;;;;16.97;49.54;100763.34;5025802;28;1116;-53
2024/03/03 09:18:54;;;;;;;;;;;;;;;17.92;48.21;100764.47;5039329;28;877;-56
2024/03/03 09:21:20;;;;;;;;;;;;;;;16.87;49.34;100764.16;5025894;28;1981;-57
2024/03/03 09:23:46;;;;;;;;;;;;;;;17.86;48.34;100763.63;5038937;28;2536;-53
2024/03/03 09:26:11;;;;;;;;;;;;;;;17.39;48.80;100764.91;5038235;28;1066;-55
2024/03/03 09:28:37;;;;;;;;;;;;;;;16.84;49.18;100764.72;5029778;28;1348;-57
2024/03/03 09:31:04;;;;;;;;;;;;;;;16.55;48.66;100757.84;5035048;28;940;-57
2024/03/03 09:33:29;;;;;;;;;;;;;;;16.40;48.16;100753.16;5029699;28;1107;-56
2024/03/03 09:35:55;;;;;;;;;;;;;;;17.98;48.12;100766.09;5035101;28;1037;-55
2024/03/03 09:38:20;;;;;;;;;;;;;;;16.84;49.62;100753.72;5029940;28;1165;-55
2024/03/03 09:40:46;;;;;;;;;;;;;;;16.51;49.13;100758.66;5039387;28;1917;-56
2024/03/03 09:43:14;;;;;;;;;;;;;;;18.04;47.85;100753.13;5037536;28;889;-55
2024/03/03 09:45:39;;;;;;;;;;;;;;;16.99;49.14;100761.16;5039173;28;1111;-55
2024/03/03 09:48:05;;;;;;;;;;;;;;;16.70;48.78;100756.19;5038913;28;1019;-57
2024/03/03 09:50:30;;;;;;;;;;;;;;;16.49;47.94;100758.94;5038469;28;1213;-57
2024/03/03 09:52:56;;;;;;;;;;;;;;;16.19;47.86;100767.97;5038652;28;1174;-57
2024/03/03 09:55:22;;;;;;;;;;;;;;;16.10;47.46;100767.66;5038297;28;2530;-57
2024/03/03 09:57:48;;;;;;;;;;;;;;;17.13;48.58;100764.19;5038968;28;1044;-57
2024/03/03 10:00:13;;;;;;;;;;;;;;;16.92;49.21;100766.94;5038816;28;1917;-57
2024/03/03 10:02:39;;;;;;;;;;;;;;;16.83;49.77;100768.53;5038493;28;1027;-58
2024/03/03 10:05:08;;;;;;;;;;;;;;;18.29;47.22;100765.91;5037168;28;1012;-57
2024/03/03 10:07:37;;;;;;;;;;;;;;;16.95;49.37;100771.88;5038460;28;876;-56
2024/03/03 10:10:03;;;;;;;;;;;;;;;16.63;48.75;100772.94;5038227;28;1181;-60
2024/03/03 10:12:32;;;;;;;;;;;;;;;17.24;49.30;100771.28;5037657;28;1285;-59
2024/03/03 10:14:58;;;;;;;;;;;;;;;17.06;49.24;100776.25;5038374;28;1019;-60
2024/03/03 10:17:23;;;;;;;;;;;;;;;16.63;48.76;100767.44;5037936;28;1016;-58
2024/03/03 10:19:49;;;;;;;;;;;;;;;16.85;49.75;100767.19;5038567;28;1914;-60
2024/03/03 10:22:17;;;;;;;;;;;;;;;17.50;48.66;100760.22;5038235;28;1066;-59
2024/03/03 10:24:43;;;;;;;;;;;;;;;16.69;49.33;100757.28;5029939;28;2408;-60
2024/03/03 10:27:13;;;;;;;;;;;;;;;16.40;48.81;100764.16;5037762;28;1153;-60
2024/03/03 10:29:42;;;;;;;;;;;;;;;18.03;47.86;100757.78;5037843;28;1079;-59
2024/03/03 10:32:11;;;;;;;;;;;;;;;17.05;49.03;100755.38;5038134;28;1035;-60
2024/03/03 10:34:37;;;;;;;;;;;;;;;16.56;48.96;100747.69;5037866;28;1094;-58
2024/03/03 10:37:03;;;;;;;;;;;;;;;16.41;47.92;100746.59;5038317;28;1036;-58
2024/03/03 10:39:32;;;;;;;;;;;;;;;16.77;48.80;100748.50;5034349;28;1985;-59
2024/03/03 10:41:58;;;;;;;;;;;;;;;18.22;47.10;100740.66;5028365;28;1148;-59
2024/03/03 10:44:23;;;;;;;;;;;;;;;16.94;49.19;100745.50;5037551;28;1116;-58
2024/03/03 10:46:49;;;;;;;;;;;;;;;16.60;48.81;100737.81;5037533;28;1046;-58
2024/03/03 10:49:14;;;;;;;;;;;;;;;17.74;48.48;100741.97;5033106;28;1096;-57
2024/03/03 10:51:40;;;;;;;;;;;;;;;16.80;49.37;100741.66;5032059;28;1334;-59
2024/03/03 10:54:05;;;;;;;;;;;;;;;16.52;48.68;100730.13;5034674;28;1949;-59
2024/03/03 10:56:31;;;;;;;;;;;;;;;17.18;49.12;100732.00;5037145;28;1097;-58
2024/03/03 10:58:57;;;;;;;;;;;;;;;16.97;49.38;100731.22;5036513;28;1131;-57
2024/03/03 11:01:23;;;;;;;;;;;;;;;16.55;48.62;100730.41;5037441;28;1902;-59
2024/03/03 11:03:49;;;;;;;;;;;;;;;16.29;48.07;100724.06;5056086;28;1210;-56
2024/03/03 11:06:14;;;;;;;;;;;;;;;16.23;47.91;100722.44;5034991;28;1071;-57
2024/03/03 11:08:40;;;;;;;;;;;;;;;17.82;48.01;100718.53;5037298;28;1008;-57
2024/03/03 11:11:08;;;;;;;;;;;;;;;16.94;49.21;100715.28;5031124;28;969;-58
2024/03/03 11:13:43;;;;;;;;;;;;;;;16.45;48.90;100716.66;5030809;28;1066;-58
2024/03/03 11:16:09;;;;;;;;;;;;;;;17.12;49.15;100702.06;5033125;28;1247;-58
2024/03/03 11:18:36;;;;;;;;;;;;;;;17.31;48.67;100700.38;5036722;28;1344;-57
2024/03/03 11:21:07;;;;;;;;;;;;;;;16.62;49.34;100696.34;5035444;28;1906;-58
2024/03/03 11:23:48;;;;;;;;;;;;;;;16.36;48.31;100702.66;5037069;28;1001;-57
2024/03/03 11:26:14;;;;;;;;;;;;;;;17.73;48.28;100698.25;5030727;28;1034;-58
2024/03/03 11:28:41;;;;;;;;;;;;;;;16.83;49.29;100697.16;5037039;28;1055;-59
2024/03/03 11:31:07;;;;;;;;;;;;;;;16.46;48.59;100696.34;5035484;28;1123;-58
2024/03/03 11:33:32;;;;;;;;;;;;;;;17.31;48.99;100694.88;5033212;28;1572;-55
2024/03/03 11:35:58;;;;;;;;;;;;;;;17.33;48.68;100689.91;5035742;28;1020;-57
2024/03/03 11:38:23;;;;;;;;;;;;;;;16.64;48.88;100694.16;5035575;28;1112;-58
2024/03/03 11:40:49;;;;;;;;;;;;;;;16.32;48.63;100682.38;5035223;28;1918;-58
2024/03/03 11:43:14;;;;;;;;;;;;;;;17.55;48.31;100692.28;5029854;28;1016;-58
2024/03/03 11:45:40;;;;;;;;;;;;;;;17.33;48.49;100684.41;5036827;28;1202;-58
2024/03/03 11:48:06;;;;;;;;;;;;;;;16.68;48.78;100696.06;5036534;28;1000;-58
2024/03/03 11:50:31;;;;;;;;;;;;;;;16.46;48.18;100687.31;5058932;28;1325;-56
2024/03/03 11:52:57;;;;;;;;;;;;;;;16.91;48.98;100688.38;5019864;28;1087;-58
2024/03/03 11:55:27;;;;;;;;;;;;;;;17.49;48.08;100687.94;5026609;28;2791;-57
2024/03/03 11:57:56;;;;;;;;;;;;;;;16.65;48.97;100693.06;5020615;28;1064;-58
2024/03/03 12:00:24;;;;;;;;;;;;;;;16.90;49.22;100683.97;5036331;28;1906;-58
2024/03/03 12:02:50;;;;;;;;;;;;;;;17.40;48.40;100690.44;5036557;28;1207;-58
2024/03/03 12:05:15;;;;;;;;;;;;;;;16.76;48.78;100687.28;5031261;28;1131;-57
2024/03/03 12:07:42;;;;;;;;;;;;;;;16.39;48.59;100688.41;5036145;28;1063;-57
2024/03/03 12:10:14;;;;;;;;;;;;;;;16.96;48.82;100684.78;5023399;28;1012;-58
2024/03/03 12:12:40;;;;;;;;;;;;;;;17.48;48.30;100685.47;5036465;28;1090;-58
2024/03/03 12:15:08;;;;;;;;;;;;;;;16.61;48.94;100681.81;5033569;28;1174;-54
2024/03/03 12:17:35;;;;;;;;;;;;;;;16.97;49.39;100681.78;5067482;28;1079;-55
2024/03/03 12:20:05;;;;;;;;;;;;;;;17.14;48.92;100686.97;5035842;28;1976;-57
2024/03/03 12:22:31;;;;;;;;;;;;;;;16.58;48.94;100680.44;5035749;28;1504;-57
2024/03/03 12:24:57;;;;;;;;;;;;;;;16.34;48.60;100680.19;5035743;28;2536;-58
2024/03/03 12:27:23;;;;;;;;;;;;;;;17.00;48.59;100689.47;5035643;28;1262;-62
2024/03/03 12:29:59;;;;;;;;;;;;;;;16.92;49.05;100684.53;5028692;28;1297;-62
2024/03/03 12:32:25;;;;;;;;;;;;;;;16.48;48.75;100674.13;5036068;28;1120;-62
2024/03/03 12:34:51;;;;;;;;;;;;;;;17.20;48.56;100679.53;5035915;28;1289;-62
2024/03/03 12:37:16;;;;;;;;;;;;;;;17.43;48.59;100676.13;5029796;28;1118;-62
2024/03/03 12:39:41;;;;;;;;;;;;;;;16.71;49.16;100675.50;5035697;28;1901;-63
2024/03/03 12:42:07;;;;;;;;;;;;;;;16.44;48.18;100679.34;5022333;28;1053;-63
2024/03/03 12:44:36;;;;;;;;;;;;;;;16.28;47.66;100681.25;5032501;28;1131;-63